createdAt,value
2022-11-07T00:00:49.932Z,39.05
2022-11-07T00:03:19.278Z,40.00
2022-11-07T00:05:48.203Z,38.17
2022-11-07T00:08:16.934Z,39.63
2022-11-07T00:10:45.779Z,40.65
2022-11-07T00:13:14.794Z,39.95
2022-11-07T00:15:43.702Z,40.15
2022-11-07T00:18:12.457Z,39.13
2022-11-07T00:20:41.138Z,46.85
2022-11-07T00:23:09.883Z,40.92
2022-11-07T00:25:38.688Z,40.97
2022-11-07T00:28:08.698Z,43.40
2022-11-07T00:30:37.409Z,39.00
2022-11-07T00:33:06.649Z,39.65
2022-11-07T00:35:35.501Z,48.58
2022-11-07T00:38:04.208Z,41.90
2022-11-07T00:40:33.003Z,41.35
2022-11-07T00:43:01.686Z,41.75
2022-11-07T00:45:30.419Z,41.92
2022-11-07T00:47:59.268Z,36.80
2022-11-07T00:50:28.001Z,38.67
2022-11-07T00:52:59.778Z,43.55
2022-11-07T00:55:28.968Z,43.60
2022-11-07T00:57:57.669Z,50.60
2022-11-07T01:00:27.224Z,47.47
2022-11-07T01:03:20.110Z,53.30
2022-11-07T01:06:06.495Z,44.13
2022-11-07T01:08:35.441Z,43.00
2022-11-07T01:11:11.932Z,45.13
2022-11-07T01:13:41.527Z,40.90
2022-11-07T01:16:13.511Z,39.88
2022-11-07T01:18:42.638Z,36.87
2022-11-07T01:21:16.257Z,36.63
2022-11-07T01:23:45.915Z,38.70
2022-11-07T01:26:16.396Z,36.83
2022-11-07T01:28:50.303Z,34.72
2022-11-07T01:31:21.293Z,34.72
2022-11-07T01:33:51.078Z,37.33
2022-11-07T01:36:20.162Z,32.08
2022-11-07T01:38:49.974Z,34.35
2022-11-07T01:41:23.422Z,35.90
2022-11-07T01:44:08.601Z,32.58
2022-11-07T01:46:46.665Z,33.53
2022-11-07T01:49:37.748Z,32.25
2022-11-07T01:52:13.155Z,32.42
2022-11-07T01:54:54.891Z,31.27
2022-11-07T01:57:32.027Z,30.58
2022-11-07T02:00:03.210Z,32.53
2022-11-07T02:02:33.513Z,32.70
2022-11-07T02:05:04.131Z,33.00
2022-11-07T02:07:33.842Z,32.63
2022-11-07T02:10:06.748Z,32.22
2022-11-07T02:15:04.359Z,30.05
2022-11-07T02:17:33.392Z,29.95
2022-11-07T02:20:02.183Z,28.67
2022-11-07T02:22:48.171Z,30.70
2022-11-07T02:25:19.403Z,31.58
2022-11-07T02:27:52.805Z,30.98
2022-11-07T02:30:27.310Z,29.40
2022-11-07T02:33:00.655Z,29.40
2022-11-07T02:35:47.288Z,27.50
2022-11-07T02:38:28.757Z,28.15
2022-11-07T02:41:01.252Z,28.40
2022-11-07T02:43:35.985Z,27.42
2022-11-07T02:46:11.444Z,28.30
2022-11-07T02:48:46.802Z,28.20
2022-11-07T02:51:15.606Z,28.85
2022-11-07T02:53:45.432Z,27.05
2022-11-07T02:56:15.055Z,27.13
2022-11-07T02:58:44.491Z,25.83
2022-11-07T03:01:14.693Z,27.45
2022-11-07T03:03:48.115Z,27.30
2022-11-07T03:06:21.984Z,26.75
2022-11-07T03:08:52.764Z,24.60
2022-11-07T03:11:22.620Z,26.13
2022-11-07T03:13:52.840Z,26.52
2022-11-07T03:16:22.969Z,24.17
2022-11-07T03:18:51.760Z,25.40
2022-11-07T03:21:23.432Z,24.92
2022-11-07T03:23:52.397Z,24.10
2022-11-07T03:26:22.474Z,25.80
2022-11-07T03:28:52.723Z,25.85
2022-11-07T03:31:21.695Z,24.92
2022-11-07T03:33:50.519Z,26.10
2022-11-07T03:36:20.754Z,25.85
2022-11-07T03:38:50.247Z,25.75
2022-11-07T03:41:20.238Z,23.63
2022-11-07T03:43:50.366Z,26.70
2022-11-07T03:46:19.570Z,26.27
2022-11-07T03:48:48.685Z,24.20
2022-11-07T03:51:19.838Z,27.50
2022-11-07T03:53:48.617Z,25.52
2022-11-07T03:56:21.273Z,30.00
2022-11-07T03:58:50.058Z,25.35
2022-11-07T04:01:19.287Z,25.73
2022-11-07T04:03:48.467Z,26.63
2022-11-07T04:06:18.871Z,26.20
2022-11-07T04:08:48.784Z,25.77
2022-11-07T04:11:37.816Z,25.92
2022-11-07T04:14:26.429Z,25.77
2022-11-07T04:17:17.473Z,23.70
2022-11-07T04:19:47.326Z,25.05
2022-11-07T04:22:17.215Z,24.83
2022-11-07T04:24:46.712Z,23.83
2022-11-07T04:27:37.800Z,25.23
2022-11-07T04:30:27.141Z,23.95
2022-11-07T04:32:59.110Z,26.80
2022-11-07T04:35:32.034Z,23.70
2022-11-07T04:38:02.666Z,23.80
2022-11-07T04:40:32.163Z,24.55
2022-11-07T04:43:01.160Z,24.40
2022-11-07T04:45:30.796Z,24.95
2022-11-07T04:48:01.612Z,24.17
2022-11-07T04:50:30.966Z,25.13
2022-11-07T04:53:00.001Z,24.42
2022-11-07T04:55:31.952Z,24.88
2022-11-07T04:58:01.061Z,23.73
2022-11-07T05:00:29.792Z,22.63
2022-11-07T05:02:58.700Z,23.42
2022-11-07T05:05:28.289Z,24.00
2022-11-07T05:07:56.996Z,25.45
2022-11-07T05:10:31.459Z,23.95
2022-11-07T05:13:01.127Z,23.50
2022-11-07T05:15:30.246Z,24.00
2022-11-07T05:17:58.928Z,24.45
2022-11-07T05:20:32.564Z,25.20
2022-11-07T05:23:18.712Z,24.60
2022-11-07T05:25:52.532Z,25.60
2022-11-07T05:28:31.127Z,24.08
2022-11-07T05:31:04.664Z,22.75
2022-11-07T05:33:33.423Z,23.75
2022-11-07T05:36:20.103Z,25.00
2022-11-07T05:38:50.994Z,24.00
2022-11-07T05:41:22.816Z,22.88
2022-11-07T05:43:51.583Z,23.25
2022-11-07T05:46:20.449Z,22.17
2022-11-07T05:48:49.279Z,24.42
2022-11-07T05:51:18.007Z,24.42
2022-11-07T05:53:47.244Z,24.33
2022-11-07T05:56:16.416Z,25.25
2022-11-07T05:58:45.125Z,23.42
2022-11-07T06:01:13.941Z,23.65
2022-11-07T06:06:25.362Z,22.67
2022-11-07T06:08:54.353Z,23.80
2022-11-07T06:11:23.186Z,24.67
2022-11-07T06:13:52.310Z,23.65
2022-11-07T06:16:21.290Z,23.15
2022-11-07T06:18:50.038Z,24.98
2022-11-07T06:21:19.450Z,24.08
2022-11-07T06:23:48.328Z,24.55
2022-11-07T06:26:17.292Z,23.60
2022-11-07T06:28:46.106Z,22.85
2022-11-07T06:31:14.899Z,23.23
2022-11-07T06:33:43.712Z,23.77
2022-11-07T06:36:14.391Z,22.48
2022-11-07T06:38:43.839Z,22.85
2022-11-07T06:41:15.208Z,23.55
2022-11-07T06:43:45.118Z,23.08
2022-11-07T06:46:15.170Z,22.77
2022-11-07T06:48:44.007Z,23.63
2022-11-07T06:51:13.572Z,21.45
2022-11-07T06:53:42.826Z,23.52
2022-11-07T06:56:16.380Z,22.23
2022-11-07T06:58:45.262Z,22.50
2022-11-07T07:01:25.898Z,24.10
2022-11-07T07:03:54.763Z,22.88
2022-11-07T07:06:23.790Z,21.92
2022-11-07T07:08:52.676Z,21.38
2022-11-07T07:11:22.288Z,22.60
2022-11-07T07:13:51.112Z,22.98
2022-11-07T07:16:20.028Z,23.70
2022-11-07T07:18:49.213Z,23.30
2022-11-07T07:21:17.985Z,22.25
2022-11-07T07:23:46.786Z,22.08
2022-11-07T07:26:17.715Z,20.90
2022-11-07T07:28:46.458Z,22.55
2022-11-07T07:31:16.136Z,21.13
2022-11-07T07:33:49.791Z,21.58
2022-11-07T07:36:20.907Z,21.48
2022-11-07T07:38:52.402Z,22.13
2022-11-07T07:41:21.807Z,21.33
2022-11-07T07:43:50.590Z,22.67
2022-11-07T07:46:23.371Z,22.27
2022-11-07T07:51:21.669Z,22.45
2022-11-07T07:53:50.651Z,22.35
2022-11-07T07:56:19.506Z,22.65
2022-11-07T07:58:49.405Z,21.02
2022-11-07T08:01:18.208Z,21.02
2022-11-07T08:04:02.928Z,23.45
2022-11-07T08:06:33.362Z,21.77
2022-11-07T08:09:06.154Z,27.70
2022-11-07T08:14:03.886Z,22.58
2022-11-07T08:16:32.685Z,21.42
2022-11-07T08:19:01.445Z,21.30
2022-11-07T08:21:31.259Z,23.08
2022-11-07T08:24:00.256Z,21.38
2022-11-07T08:26:29.324Z,22.17
2022-11-07T08:28:58.804Z,21.70
2022-11-07T08:31:27.612Z,21.83
2022-11-07T08:33:59.929Z,20.65
2022-11-07T08:36:29.891Z,20.35
2022-11-07T08:38:58.811Z,21.23
2022-11-07T08:41:27.944Z,20.58
2022-11-07T08:43:56.661Z,20.45
2022-11-07T08:46:25.893Z,21.45
2022-11-07T08:48:54.686Z,21.13
2022-11-07T08:51:23.403Z,21.05
2022-11-07T08:53:52.322Z,21.27
2022-11-07T08:56:23.717Z,22.40
2022-11-07T08:58:52.455Z,21.13
2022-11-07T09:01:24.829Z,21.80
2022-11-07T09:03:58.339Z,20.50
2022-11-07T09:06:27.721Z,21.30
2022-11-07T09:08:59.086Z,21.55
2022-11-07T09:11:31.975Z,21.55
2022-11-07T09:14:00.844Z,22.08
2022-11-07T09:16:29.589Z,22.65
2022-11-07T09:18:58.349Z,21.65
2022-11-07T09:21:27.096Z,21.70
2022-11-07T09:23:55.951Z,21.42
2022-11-07T09:26:29.441Z,22.17
2022-11-07T09:29:01.055Z,22.20
2022-11-07T09:31:30.346Z,23.20
2022-11-07T09:33:59.163Z,22.67
2022-11-07T09:36:27.947Z,42.33
2022-11-07T09:38:59.189Z,24.42
2022-11-07T09:41:48.454Z,23.05
2022-11-07T09:44:43.587Z,22.67
2022-11-07T09:47:21.814Z,24.08
2022-11-07T09:50:00.412Z,23.88
2022-11-07T09:52:44.518Z,22.42
2022-11-07T09:55:17.898Z,22.77
2022-11-07T09:57:48.730Z,22.88
2022-11-07T10:00:21.832Z,23.55
2022-11-07T10:02:54.085Z,24.30
2022-11-07T10:06:02.442Z,24.38
2022-11-07T10:08:54.765Z,26.45
2022-11-07T10:11:53.089Z,26.67
2022-11-07T10:14:40.342Z,27.67
2022-11-07T10:17:41.416Z,25.67
2022-11-07T10:20:34.884Z,27.30
2022-11-07T10:23:20.950Z,25.23
2022-11-07T10:26:12.057Z,27.05
2022-11-07T10:28:50.497Z,27.90
2022-11-07T10:31:29.271Z,28.02
2022-11-07T10:34:06.357Z,30.88
2022-11-07T10:36:36.239Z,28.30
2022-11-07T10:39:17.240Z,33.00
2022-11-07T10:42:02.046Z,32.08
2022-11-07T10:44:33.778Z,29.13
2022-11-07T10:47:08.052Z,30.52
2022-11-07T10:49:37.125Z,31.02
2022-11-07T10:52:10.628Z,31.10
2022-11-07T11:26:42.452Z,40.00
2022-11-07T11:29:26.868Z,42.97
2022-11-07T11:32:00.226Z,46.10
2022-11-07T11:34:38.891Z,56.17
2022-11-07T11:37:13.128Z,49.05
2022-11-07T11:40:04.203Z,51.13
2022-11-07T11:43:12.990Z,38.85
2022-11-07T11:45:42.735Z,38.10
2022-11-07T11:48:38.960Z,38.72
2022-11-07T11:51:15.895Z,36.63
2022-11-07T11:53:45.963Z,37.15
2022-11-07T11:56:46.310Z,36.40
2022-11-07T11:59:29.622Z,35.55
2022-11-07T12:02:38.613Z,37.85
2022-11-07T12:05:37.618Z,36.40
2022-11-07T12:08:14.428Z,36.45
2022-11-07T12:10:51.483Z,34.22
2022-11-07T12:13:42.412Z,35.15
2022-11-07T12:16:19.305Z,34.95
2022-11-07T12:18:55.162Z,35.97
2022-11-07T12:21:29.854Z,35.63
2022-11-07T12:24:18.692Z,36.90
2022-11-07T12:26:59.678Z,35.72
2022-11-07T12:29:33.955Z,35.60
2022-11-07T12:32:44.296Z,34.75
2022-11-07T12:35:17.536Z,33.60
2022-11-07T12:38:05.046Z,33.42
2022-11-07T12:40:52.082Z,35.80
2022-11-07T12:43:29.641Z,35.10
2022-11-07T12:46:37.538Z,34.33
2022-11-07T12:49:09.213Z,32.85
2022-11-07T12:51:58.016Z,33.63
2022-11-07T12:54:36.538Z,35.47
2022-11-07T12:57:14.485Z,37.13
2022-11-07T12:59:49.060Z,36.15
2022-11-07T13:02:20.123Z,34.92
2022-11-07T13:05:15.291Z,35.33
2022-11-07T13:07:51.427Z,35.05
2022-11-07T13:10:59.297Z,37.58
2022-11-07T13:13:32.083Z,36.20
2022-11-07T13:18:44.775Z,36.58
2022-11-07T13:21:14.021Z,35.40
2022-11-07T13:23:43.164Z,37.15
2022-11-07T13:26:32.838Z,35.80
2022-11-07T13:29:02.408Z,37.70
2022-11-07T13:31:38.120Z,37.30
2022-11-07T13:34:28.917Z,36.25
2022-11-07T13:37:03.781Z,36.17
2022-11-07T13:39:32.996Z,36.78
2022-11-07T13:42:02.686Z,37.42
2022-11-07T13:44:37.824Z,35.97
2022-11-07T13:47:15.064Z,38.40
2022-11-07T13:49:47.234Z,37.22
2022-11-07T13:52:29.480Z,38.65
2022-11-07T13:55:06.927Z,38.07
2022-11-07T13:57:38.290Z,37.88
2022-11-07T14:00:15.287Z,37.83
2022-11-07T14:03:01.815Z,37.25
2022-11-07T14:05:37.335Z,35.72
2022-11-07T14:08:09.072Z,37.30
2022-11-07T14:10:48.275Z,37.03
2022-11-07T14:13:41.280Z,36.30
2022-11-07T14:16:22.685Z,37.40
2022-11-07T14:18:59.950Z,35.80
2022-11-07T14:21:34.076Z,38.15
2022-11-07T14:24:03.688Z,36.40
2022-11-07T14:26:35.488Z,35.10
2022-11-07T14:29:06.074Z,36.35
2022-11-07T14:31:37.890Z,35.75
2022-11-07T14:34:19.848Z,36.42
2022-11-07T14:36:54.154Z,35.25
2022-11-07T14:39:25.981Z,35.42
2022-11-07T14:41:57.980Z,34.63
2022-11-07T14:44:53.338Z,34.97
2022-11-07T14:47:29.234Z,34.25
2022-11-07T14:49:58.199Z,36.72
2022-11-07T14:52:48.185Z,36.03
2022-11-07T14:55:31.615Z,35.45
2022-11-07T14:58:03.010Z,36.00
2022-11-07T15:00:33.065Z,36.25
2022-11-07T15:03:03.350Z,36.85
2022-11-07T15:05:46.702Z,35.42
2022-11-07T15:08:36.293Z,38.38
2022-11-07T15:11:21.449Z,36.58
2022-11-07T15:13:50.743Z,35.65
2022-11-07T15:16:24.180Z,35.72
2022-11-07T15:19:01.653Z,37.10
2022-11-07T15:21:33.192Z,36.90
2022-11-07T15:24:22.545Z,36.85
2022-11-07T15:27:02.385Z,37.40
2022-11-07T15:29:38.877Z,37.67
2022-11-07T15:32:14.111Z,37.50
2022-11-07T15:37:32.557Z,39.10
2022-11-07T15:40:01.453Z,38.15
2022-11-07T15:42:30.708Z,39.05
2022-11-07T15:44:59.428Z,38.50
2022-11-07T15:47:28.267Z,39.08
2022-11-07T15:49:57.518Z,38.60
2022-11-07T15:52:26.264Z,38.25
2022-11-07T15:54:55.032Z,39.40
2022-11-07T15:57:23.789Z,39.60
2022-11-07T15:59:52.578Z,39.65
2022-11-07T16:02:21.619Z,39.97
2022-11-07T16:04:50.414Z,40.75
2022-11-07T16:07:20.964Z,41.25
2022-11-07T16:09:49.752Z,38.80
2022-11-07T16:12:20.202Z,38.78
2022-11-07T16:14:48.979Z,38.35
2022-11-07T16:17:19.960Z,39.20
2022-11-07T16:19:49.048Z,38.70
2022-11-07T16:22:18.283Z,37.10
2022-11-07T16:24:46.993Z,38.78
2022-11-07T16:27:18.881Z,37.53
2022-11-07T16:29:47.834Z,36.70
2022-11-07T16:32:18.695Z,37.85
2022-11-07T16:34:48.786Z,38.22
2022-11-07T16:37:17.536Z,37.28
2022-11-07T16:39:46.234Z,37.20
2022-11-07T16:42:17.216Z,38.42
2022-11-07T16:44:46.123Z,38.35
2022-11-07T16:47:17.768Z,38.55
2022-11-07T16:49:47.718Z,39.92
2022-11-07T16:52:20.543Z,37.78
2022-11-07T16:54:49.273Z,37.75
2022-11-07T16:57:19.785Z,38.25
2022-11-07T17:03:40.545Z,38.58
2022-11-07T17:06:20.700Z,38.13
2022-11-07T17:08:50.169Z,36.15
2022-11-07T17:11:19.434Z,37.92
2022-11-07T17:13:48.461Z,36.47
2022-11-07T17:16:25.097Z,38.55
2022-11-07T17:18:54.611Z,38.05
2022-11-07T17:21:28.724Z,37.97
2022-11-07T17:23:59.304Z,36.92
2022-11-07T17:26:31.294Z,37.40
2022-11-07T17:29:00.751Z,36.20
2022-11-07T17:31:29.781Z,36.33
2022-11-07T17:33:58.542Z,36.28
2022-11-07T17:36:37.163Z,35.58
2022-11-07T17:39:12.154Z,35.67
2022-11-07T17:41:42.296Z,36.22
2022-11-07T17:44:12.160Z,36.05
2022-11-07T17:46:46.850Z,35.08
2022-11-07T17:49:18.226Z,35.50
2022-11-07T17:51:47.259Z,35.47
2022-11-07T17:54:17.288Z,35.40
2022-11-07T17:56:46.307Z,36.63
2022-11-07T17:59:18.543Z,35.25
2022-11-07T18:01:47.896Z,34.20
2022-11-07T18:04:17.061Z,33.05
2022-11-07T18:06:46.173Z,35.25
2022-11-07T18:09:17.391Z,33.65
2022-11-07T18:11:46.490Z,33.33
2022-11-07T18:14:15.845Z,33.00
2022-11-07T18:16:44.602Z,33.13
2022-11-07T18:19:13.481Z,33.17
2022-11-07T18:21:42.542Z,32.70
2022-11-07T18:24:11.368Z,33.20
2022-11-07T18:26:40.322Z,33.85
2022-11-07T18:29:12.390Z,33.45
2022-11-07T18:31:42.284Z,34.80
2022-11-07T18:34:14.947Z,33.83
2022-11-07T18:36:45.182Z,33.90
2022-11-07T18:39:22.507Z,32.80
2022-11-07T18:41:53.001Z,35.13
2022-11-07T18:44:22.193Z,34.40
2022-11-07T18:46:51.693Z,34.17
2022-11-07T18:49:20.777Z,34.20
2022-11-07T18:51:49.595Z,33.28
2022-11-07T18:54:18.318Z,34.35
2022-11-07T18:56:47.090Z,32.58
2022-11-07T18:59:15.832Z,32.53
2022-11-07T19:01:44.760Z,34.13
2022-11-07T19:04:13.722Z,31.73
2022-11-07T19:06:57.838Z,33.33
2022-11-07T19:09:33.040Z,31.80
2022-11-07T19:12:02.848Z,31.52
2022-11-07T19:14:32.692Z,32.97
2022-11-07T19:17:02.232Z,30.98
2022-11-07T19:19:33.836Z,31.50
2022-11-07T19:22:02.974Z,31.95
2022-11-07T19:24:31.738Z,31.10
2022-11-07T19:27:01.999Z,31.17
2022-11-07T19:29:31.685Z,30.70
2022-11-07T19:32:00.484Z,31.17
2022-11-07T19:34:29.337Z,31.48
2022-11-07T19:36:58.166Z,29.27
2022-11-07T19:39:27.598Z,29.40
2022-11-07T19:41:56.418Z,29.98
2022-11-07T19:44:25.224Z,30.17
2022-11-07T19:46:53.976Z,29.10
2022-11-07T19:49:22.745Z,29.40
2022-11-07T19:51:53.223Z,28.73
2022-11-07T19:54:21.980Z,28.13
2022-11-07T19:56:56.188Z,28.50
2022-11-07T19:59:26.128Z,28.27
2022-11-07T20:02:25.923Z,28.75
2022-11-07T20:04:43.874Z,28.60
2022-11-07T20:07:12.627Z,28.63
2022-11-07T20:09:42.114Z,28.13
2022-11-07T20:12:10.930Z,26.65
2022-11-07T20:14:40.176Z,27.38
2022-11-07T20:17:09.032Z,27.77
2022-11-07T20:19:38.970Z,26.60
2022-11-07T20:22:07.676Z,27.02
2022-11-07T20:24:36.390Z,27.63
2022-11-07T20:27:05.650Z,26.15
2022-11-07T20:29:34.353Z,26.27
2022-11-07T20:32:03.150Z,26.08
2022-11-07T20:34:32.005Z,27.08
2022-11-07T20:37:00.799Z,27.40
2022-11-07T20:39:29.666Z,25.85
2022-11-07T20:41:58.490Z,25.30
2022-11-07T20:44:29.178Z,25.65
2022-11-07T20:46:58.538Z,26.60
2022-11-07T20:49:27.276Z,26.45
2022-11-07T20:51:56.302Z,26.00
2022-11-07T20:54:25.270Z,26.15
2022-11-07T20:56:54.128Z,24.77
2022-11-07T20:59:24.506Z,25.55
2022-11-07T21:01:55.660Z,25.48
2022-11-07T21:04:28.070Z,25.10
2022-11-07T21:06:56.913Z,24.27
2022-11-07T21:09:25.968Z,24.63
2022-11-07T21:11:55.354Z,26.02
2022-11-07T21:14:24.225Z,25.48
2022-11-07T21:16:53.025Z,25.05
2022-11-07T21:19:22.192Z,24.73
2022-11-07T21:21:51.371Z,25.20
2022-11-07T21:24:20.220Z,24.45
2022-11-07T21:26:49.113Z,26.45
2022-11-07T21:29:18.123Z,25.05
2022-11-07T21:31:46.954Z,25.80
2022-11-07T21:34:15.723Z,25.10
2022-11-07T21:36:44.461Z,24.35
2022-11-07T21:39:13.513Z,25.65
2022-11-07T21:41:42.271Z,24.88
2022-11-07T21:44:12.917Z,24.42
2022-11-07T21:46:41.830Z,25.27
2022-11-07T21:49:10.645Z,24.13
2022-11-07T21:51:39.386Z,24.05
2022-11-07T21:54:08.690Z,25.10
2022-11-07T21:56:40.396Z,25.58
2022-11-07T21:59:13.433Z,24.88
2022-11-07T22:04:13.609Z,24.90
2022-11-07T22:06:45.380Z,24.83
2022-11-07T22:09:17.506Z,25.27
2022-11-07T22:11:46.256Z,24.90
2022-11-07T22:14:18.758Z,25.98
2022-11-07T22:16:47.769Z,24.27
2022-11-07T22:19:18.858Z,25.80
2022-11-07T22:21:50.150Z,25.15
2022-11-07T22:24:18.959Z,25.30
2022-11-07T22:26:47.950Z,23.80
2022-11-07T22:29:17.067Z,24.10
2022-11-07T22:31:46.125Z,25.08
2022-11-07T22:34:15.130Z,24.45
2022-11-07T22:36:44.547Z,24.90
2022-11-07T22:39:13.404Z,24.30
2022-11-07T22:41:42.250Z,24.75
2022-11-07T22:44:11.475Z,25.00
2022-11-07T22:46:40.917Z,24.77
2022-11-07T22:49:09.653Z,25.02
2022-11-07T22:51:38.753Z,25.65
2022-11-07T22:54:12.153Z,25.35
2022-11-07T22:56:42.430Z,25.45
2022-11-07T22:59:15.349Z,24.10
2022-11-07T23:01:44.964Z,22.85
2022-11-07T23:04:19.639Z,24.30
2022-11-07T23:06:49.975Z,24.13
2022-11-07T23:09:19.067Z,23.77
2022-11-07T23:11:48.884Z,24.77
2022-11-07T23:14:21.978Z,24.63
2022-11-07T23:16:54.617Z,24.92
2022-11-07T23:19:25.694Z,24.45
2022-11-07T23:21:57.508Z,24.45
2022-11-07T23:24:28.006Z,24.15
2022-11-07T23:26:58.654Z,24.23
2022-11-07T23:29:27.620Z,25.48
2022-11-07T23:31:56.528Z,24.40
2022-11-07T23:34:26.926Z,25.63
2022-11-07T23:36:57.634Z,27.02
2022-11-07T23:39:27.283Z,25.48
2022-11-07T23:41:56.487Z,25.45
2022-11-07T23:44:25.342Z,26.02
2022-11-07T23:47:17.057Z,25.75
2022-11-07T23:50:05.408Z,25.23
2022-11-07T23:52:34.213Z,25.58
2022-11-07T23:55:22.607Z,34.28
2022-11-07T23:58:11.417Z,30.98
